Strona główna
METAR-TAF:

METAR-TAF

Lotnisko :

Black_Hills

Spearfish, Dakota Południowa, Stany Zjednoczone

Szerokość geograficzna: 44-29N, Długość geograficzna: 103-47W, wysokość: 1188 m

Aktualna obserwacja pogody

Raport powstał 24 minut temu, godzina 02:35 UTC
Cisza
Temperatura 16°C
Wilgotność 72%
Ciśnienie 1019 hPa
Widzialność: 16.1 km
bezchmurnie

METAR: KSPF 180235Z AUTO 00000KT 10SM CLR 16/11 A3008 RMK AO2

czas: 20:59 (02:59 UTC)


TAF: brakujący

Obserwacja i prognoza pogody dla ponad 4000 lotnisk (raport METAR i TAF).

Dostępne stacje oznaczono żółtymi i czerwonymi punktami na mapie.

Najedź kursorem aby zobaczyć nazwę stacji.

Kliknij aby zobaczyć obserwacje i prognozy pogody.

Aby zmienić mapę: kliknij na zielony przycisk z czarnym krzyżykiem, aby powiększyć; na zielony przycisk z myślnikiem, aby pomniejszyć; na zielone strzałki, aby przejść do map sąsiednich.


METAR-TAF: